sensor_id;sensor_type;location;lat;lon;timestamp;P1;durP1;ratioP1;P2;durP2;ratioP2
44130;SDS011;29792;48.726;9.248;2024-03-23T00:53:43;5.78;;;2.50;;
44130;SDS011;29792;48.726;9.248;2024-03-23T00:56:09;4.43;;;2.22;;
44130;SDS011;29792;48.726;9.248;2024-03-23T00:58:34;6.75;;;2.28;;
44130;SDS011;29792;48.726;9.248;2024-03-23T01:01:00;5.95;;;2.33;;
44130;SDS011;29792;48.726;9.248;2024-03-23T01:03:25;3.22;;;1.98;;
44130;SDS011;29792;48.726;9.248;2024-03-23T01:05:50;1.75;;;1.58;;
44130;SDS011;29792;48.726;9.248;2024-03-23T01:08:15;5.05;;;2.47;;
44130;SDS011;29792;48.726;9.248;2024-03-23T01:10:41;2.97;;;2.13;;
44130;SDS011;29792;48.726;9.248;2024-03-23T01:13:06;3.42;;;2.05;;
44130;SDS011;29792;48.726;9.248;2024-03-23T01:15:32;6.53;;;2.00;;
44130;SDS011;29792;48.726;9.248;2024-03-23T01:17:57;3.55;;;2.20;;
44130;SDS011;29792;48.726;9.248;2024-03-23T01:20:23;2.60;;;1.77;;
44130;SDS011;29792;48.726;9.248;2024-03-23T01:22:48;2.67;;;1.65;;
44130;SDS011;29792;48.726;9.248;2024-03-23T01:25:13;3.33;;;1.85;;
44130;SDS011;29792;48.726;9.248;2024-03-23T01:27:38;3.78;;;2.85;;
44130;SDS011;29792;48.726;9.248;2024-03-23T01:30:04;3.88;;;2.08;;
44130;SDS011;29792;48.726;9.248;2024-03-23T01:32:29;3.58;;;2.03;;
44130;SDS011;29792;48.726;9.248;2024-03-23T01:34:55;2.72;;;2.53;;
44130;SDS011;29792;48.726;9.248;2024-03-23T01:37:20;4.30;;;2.35;;
44130;SDS011;29792;48.726;9.248;2024-03-23T01:39:45;2.30;;;2.03;;
44130;SDS011;29792;48.726;9.248;2024-03-23T01:42:10;3.72;;;1.75;;
44130;SDS011;29792;48.726;9.248;2024-03-23T01:44:36;2.75;;;2.40;;
44130;SDS011;29792;48.726;9.248;2024-03-23T01:47:01;1.92;;;1.25;;
44130;SDS011;29792;48.726;9.248;2024-03-23T01:49:26;5.68;;;1.73;;
44130;SDS011;29792;48.726;9.248;2024-03-23T01:51:52;2.00;;;1.70;;
44130;SDS011;29792;48.726;9.248;2024-03-23T01:54:17;2.80;;;1.50;;
44130;SDS011;29792;48.726;9.248;2024-03-23T01:56:43;4.15;;;1.90;;
44130;SDS011;29792;48.726;9.248;2024-03-23T01:59:08;1.73;;;1.60;;
44130;SDS011;29792;48.726;9.248;2024-03-23T02:01:37;3.10;;;1.90;;
44130;SDS011;29792;48.726;9.248;2024-03-23T02:04:02;2.30;;;1.85;;
44130;SDS011;29792;48.726;9.248;2024-03-23T02:06:27;3.45;;;1.92;;
44130;SDS011;29792;48.726;9.248;2024-03-23T02:08:53;2.08;;;1.60;;
44130;SDS011;29792;48.726;9.248;2024-03-23T02:11:19;2.58;;;1.58;;
44130;SDS011;29792;48.726;9.248;2024-03-23T02:13:44;3.63;;;1.63;;
44130;SDS011;29792;48.726;9.248;2024-03-23T02:16:10;2.60;;;1.40;;
44130;SDS011;29792;48.726;9.248;2024-03-23T02:18:35;3.33;;;1.80;;
44130;SDS011;29792;48.726;9.248;2024-03-23T02:21:01;3.05;;;1.30;;
44130;SDS011;29792;48.726;9.248;2024-03-23T02:23:26;2.67;;;1.30;;
44130;SDS011;29792;48.726;9.248;2024-03-23T02:25:51;1.52;;;1.40;;
44130;SDS011;29792;48.726;9.248;2024-03-23T02:28:18;3.13;;;1.77;;
44130;SDS011;29792;48.726;9.248;2024-03-23T02:30:43;1.73;;;1.27;;
44130;SDS011;29792;48.726;9.248;2024-03-23T02:33:09;2.53;;;1.63;;
44130;SDS011;29792;48.726;9.248;2024-03-23T02:35:34;1.90;;;1.60;;
44130;SDS011;29792;48.726;9.248;2024-03-23T02:37:59;2.42;;;1.30;;
44130;SDS011;29792;48.726;9.248;2024-03-23T02:40:24;2.85;;;1.95;;
44130;SDS011;29792;48.726;9.248;2024-03-23T02:42:50;2.95;;;1.90;;
44130;SDS011;29792;48.726;9.248;2024-03-23T02:45:15;4.38;;;1.50;;
44130;SDS011;29792;48.726;9.248;2024-03-23T02:47:41;2.53;;;1.50;;
44130;SDS011;29792;48.726;9.248;2024-03-23T02:50:06;7.25;;;1.80;;
44130;SDS011;29792;48.726;9.248;2024-03-23T02:52:32;1.83;;;1.73;;
44130;SDS011;29792;48.726;9.248;2024-03-23T02:54:58;2.83;;;2.03;;
44130;SDS011;29792;48.726;9.248;2024-03-23T02:57:23;3.67;;;2.13;;
44130;SDS011;29792;48.726;9.248;2024-03-23T02:59:49;2.50;;;1.70;;
44130;SDS011;29792;48.726;9.248;2024-03-23T03:02:14;2.83;;;1.80;;
44130;SDS011;29792;48.726;9.248;2024-03-23T03:04:40;2.40;;;1.65;;
44130;SDS011;29792;48.726;9.248;2024-03-23T03:07:05;1.83;;;1.60;;
44130;SDS011;29792;48.726;9.248;2024-03-23T03:09:31;3.13;;;1.38;;
44130;SDS011;29792;48.726;9.248;2024-03-23T03:11:56;1.58;;;1.38;;
44130;SDS011;29792;48.726;9.248;2024-03-23T03:14:22;1.98;;;1.35;;
44130;SDS011;29792;48.726;9.248;2024-03-23T03:16:47;1.55;;;1.27;;
44130;SDS011;29792;48.726;9.248;2024-03-23T03:19:12;2.33;;;1.40;;
44130;SDS011;29792;48.726;9.248;2024-03-23T03:21:38;1.83;;;1.60;;
44130;SDS011;29792;48.726;9.248;2024-03-23T03:24:03;2.83;;;1.63;;
44130;SDS011;29792;48.726;9.248;2024-03-23T03:26:31;1.95;;;1.60;;
44130;SDS011;29792;48.726;9.248;2024-03-23T03:28:57;2.90;;;1.80;;
44130;SDS011;29792;48.726;9.248;2024-03-23T03:31:22;2.92;;;1.50;;
44130;SDS011;29792;48.726;9.248;2024-03-23T03:33:49;1.98;;;1.75;;
44130;SDS011;29792;48.726;9.248;2024-03-23T03:36:14;3.53;;;1.75;;
44130;SDS011;29792;48.726;9.248;2024-03-23T03:38:40;1.80;;;1.38;;
44130;SDS011;29792;48.726;9.248;2024-03-23T03:41:05;3.33;;;1.58;;
44130;SDS011;29792;48.726;9.248;2024-03-23T03:43:31;2.03;;;1.65;;
44130;SDS011;29792;48.726;9.248;2024-03-23T03:45:57;3.80;;;1.30;;
44130;SDS011;29792;48.726;9.248;2024-03-23T03:48:24;2.22;;;2.03;;
44130;SDS011;29792;48.726;9.248;2024-03-23T03:50:49;1.92;;;1.48;;
44130;SDS011;29792;48.726;9.248;2024-03-23T03:53:14;2.17;;;1.48;;
44130;SDS011;29792;48.726;9.248;2024-03-23T03:55:39;2.35;;;1.80;;
44130;SDS011;29792;48.726;9.248;2024-03-23T03:58:05;3.10;;;1.70;;
44130;SDS011;29792;48.726;9.248;2024-03-23T04:00:30;2.35;;;1.60;;
44130;SDS011;29792;48.726;9.248;2024-03-23T04:02:56;3.13;;;2.45;;
44130;SDS011;29792;48.726;9.248;2024-03-23T04:05:21;3.08;;;1.65;;
44130;SDS011;29792;48.726;9.248;2024-03-23T04:07:47;2.67;;;1.98;;
44130;SDS011;29792;48.726;9.248;2024-03-23T04:10:13;4.63;;;1.73;;
44130;SDS011;29792;48.726;9.248;2024-03-23T04:12:38;3.78;;;1.73;;
44130;SDS011;29792;48.726;9.248;2024-03-23T04:15:03;2.03;;;1.50;;
44130;SDS011;29792;48.726;9.248;2024-03-23T04:17:30;2.50;;;1.90;;
44130;SDS011;29792;48.726;9.248;2024-03-23T04:19:59;1.85;;;1.30;;
44130;SDS011;29792;48.726;9.248;2024-03-23T04:22:25;2.08;;;1.33;;
44130;SDS011;29792;48.726;9.248;2024-03-23T04:24:52;3.53;;;1.45;;
44130;SDS011;29792;48.726;9.248;2024-03-23T04:27:18;2.00;;;1.80;;
44130;SDS011;29792;48.726;9.248;2024-03-23T04:29:46;2.50;;;1.73;;
44130;SDS011;29792;48.726;9.248;2024-03-23T04:32:12;3.53;;;2.22;;
44130;SDS011;29792;48.726;9.248;2024-03-23T04:34:39;1.45;;;1.35;;
44130;SDS011;29792;48.726;9.248;2024-03-23T04:37:04;4.10;;;1.92;;
44130;SDS011;29792;48.726;9.248;2024-03-23T04:39:29;3.15;;;1.70;;
44130;SDS011;29792;48.726;9.248;2024-03-23T04:41:55;2.35;;;2.13;;
44130;SDS011;29792;48.726;9.248;2024-03-23T04:44:20;3.75;;;1.38;;
44130;SDS011;29792;48.726;9.248;2024-03-23T04:46:46;2.72;;;2.22;;
44130;SDS011;29792;48.726;9.248;2024-03-23T04:49:11;2.60;;;1.58;;
44130;SDS011;29792;48.726;9.248;2024-03-23T04:51:36;1.70;;;1.52;;
44130;SDS011;29792;48.726;9.248;2024-03-23T04:54:02;2.20;;;1.60;;
44130;SDS011;29792;48.726;9.248;2024-03-23T04:56:28;4.07;;;2.38;;
44130;SDS011;29792;48.726;9.248;2024-03-23T04:58:54;3.33;;;1.77;;
44130;SDS011;29792;48.726;9.248;2024-03-23T05:01:19;3.65;;;1.90;;
44130;SDS011;29792;48.726;9.248;2024-03-23T05:03:44;3.33;;;1.77;;
44130;SDS011;29792;48.726;9.248;2024-03-23T05:06:10;3.20;;;2.33;;
44130;SDS011;29792;48.726;9.248;2024-03-23T05:08:35;3.75;;;2.83;;
44130;SDS011;29792;48.726;9.248;2024-03-23T05:11:00;5.38;;;4.28;;
44130;SDS011;29792;48.726;9.248;2024-03-23T05:13:26;5.40;;;4.88;;
44130;SDS011;29792;48.726;9.248;2024-03-23T05:15:52;5.55;;;5.00;;
44130;SDS011;29792;48.726;9.248;2024-03-23T05:18:21;8.27;;;6.22;;
44130;SDS011;29792;48.726;9.248;2024-03-23T05:20:46;7.57;;;6.82;;
44130;SDS011;29792;48.726;9.248;2024-03-23T05:23:12;9.63;;;7.00;;
44130;SDS011;29792;48.726;9.248;2024-03-23T05:25:37;10.75;;;7.63;;
44130;SDS011;29792;48.726;9.248;2024-03-23T05:28:02;12.30;;;8.02;;
44130;SDS011;29792;48.726;9.248;2024-03-23T05:30:28;10.85;;;7.30;;
44130;SDS011;29792;48.726;9.248;2024-03-23T05:32:53;10.85;;;8.45;;
44130;SDS011;29792;48.726;9.248;2024-03-23T05:35:19;11.65;;;8.27;;
44130;SDS011;29792;48.726;9.248;2024-03-23T05:37:44;13.65;;;8.70;;
44130;SDS011;29792;48.726;9.248;2024-03-23T05:40:10;9.50;;;8.05;;
44130;SDS011;29792;48.726;9.248;2024-03-23T05:42:37;12.57;;;8.32;;
44130;SDS011;29792;48.726;9.248;2024-03-23T05:45:03;12.45;;;8.73;;
44130;SDS011;29792;48.726;9.248;2024-03-23T05:47:31;10.93;;;9.75;;
44130;SDS011;29792;48.726;9.248;2024-03-23T05:49:56;12.65;;;10.40;;
44130;SDS011;29792;48.726;9.248;2024-03-23T05:52:22;12.73;;;9.57;;
44130;SDS011;29792;48.726;9.248;2024-03-23T05:54:47;12.13;;;9.45;;
44130;SDS011;29792;48.726;9.248;2024-03-23T05:57:12;11.93;;;9.57;;
44130;SDS011;29792;48.726;9.248;2024-03-23T05:59:38;11.20;;;7.63;;
44130;SDS011;29792;48.726;9.248;2024-03-23T06:02:03;8.18;;;6.28;;
44130;SDS011;29792;48.726;9.248;2024-03-23T06:04:29;9.20;;;8.07;;
44130;SDS011;29792;48.726;9.248;2024-03-23T06:06:54;6.72;;;4.90;;
44130;SDS011;29792;48.726;9.248;2024-03-23T06:09:19;6.93;;;5.60;;
44130;SDS011;29792;48.726;9.248;2024-03-23T06:11:45;9.32;;;7.05;;
44130;SDS011;29792;48.726;9.248;2024-03-23T06:14:10;8.57;;;6.65;;
44130;SDS011;29792;48.726;9.248;2024-03-23T06:16:35;5.65;;;5.05;;
44130;SDS011;29792;48.726;9.248;2024-03-23T06:19:00;6.63;;;4.78;;
44130;SDS011;29792;48.726;9.248;2024-03-23T06:21:28;5.05;;;3.97;;
44130;SDS011;29792;48.726;9.248;2024-03-23T06:23:54;4.80;;;3.75;;
44130;SDS011;29792;48.726;9.248;2024-03-23T06:26:19;2.58;;;2.25;;
44130;SDS011;29792;48.726;9.248;2024-03-23T06:28:48;4.57;;;2.13;;
44130;SDS011;29792;48.726;9.248;2024-03-23T06:31:13;2.60;;;2.10;;
44130;SDS011;29792;48.726;9.248;2024-03-23T06:33:38;3.70;;;1.92;;
44130;SDS011;29792;48.726;9.248;2024-03-23T06:36:04;1.85;;;1.67;;
44130;SDS011;29792;48.726;9.248;2024-03-23T06:38:30;1.42;;;1.13;;
44130;SDS011;29792;48.726;9.248;2024-03-23T06:40:56;1.75;;;1.13;;
44130;SDS011;29792;48.726;9.248;2024-03-23T06:43:21;2.10;;;1.00;;
44130;SDS011;29792;48.726;9.248;2024-03-23T06:45:52;1.08;;;0.65;;
44130;SDS011;29792;48.726;9.248;2024-03-23T06:48:19;0.55;;;0.30;;
44130;SDS011;29792;48.726;9.248;2024-03-23T06:50:44;0.40;;;0.30;;
44130;SDS011;29792;48.726;9.248;2024-03-23T06:53:11;2.05;;;0.63;;
44130;SDS011;29792;48.726;9.248;2024-03-23T06:55:36;0.60;;;0.40;;
44130;SDS011;29792;48.726;9.248;2024-03-23T06:58:01;1.00;;;0.30;;
44130;SDS011;29792;48.726;9.248;2024-03-23T07:00:27;0.30;;;0.22;;
44130;SDS011;29792;48.726;9.248;2024-03-23T07:02:52;0.40;;;0.20;;
44130;SDS011;29792;48.726;9.248;2024-03-23T07:05:17;0.50;;;0.30;;
44130;SDS011;29792;48.726;9.248;2024-03-23T07:07:43;1.17;;;0.30;;
44130;SDS011;29792;48.726;9.248;2024-03-23T07:10:08;0.22;;;0.20;;
44130;SDS011;29792;48.726;9.248;2024-03-23T07:12:33;0.47;;;0.20;;
44130;SDS011;29792;48.726;9.248;2024-03-23T07:14:58;1.42;;;0.17;;
44130;SDS011;29792;48.726;9.248;2024-03-23T07:17:24;0.20;;;0.20;;
44130;SDS011;29792;48.726;9.248;2024-03-23T07:19:49;0.70;;;0.25;;
44130;SDS011;29792;48.726;9.248;2024-03-23T07:22:14;0.30;;;0.10;;
44130;SDS011;29792;48.726;9.248;2024-03-23T07:24:39;0.80;;;0.80;;
44130;SDS011;29792;48.726;9.248;2024-03-23T07:27:05;0.10;;;0.10;;
44130;SDS011;29792;48.726;9.248;2024-03-23T07:29:30;0.30;;;0.20;;
44130;SDS011;29792;48.726;9.248;2024-03-23T07:31:56;0.15;;;0.10;;
44130;SDS011;29792;48.726;9.248;2024-03-23T07:34:21;0.90;;;0.10;;
44130;SDS011;29792;48.726;9.248;2024-03-23T07:36:47;0.15;;;0.10;;
44130;SDS011;29792;48.726;9.248;2024-03-23T07:39:12;0.10;;;0.00;;
44130;SDS011;29792;48.726;9.248;2024-03-23T07:41:37;1.45;;;0.88;;
44130;SDS011;29792;48.726;9.248;2024-03-23T07:44:02;1.10;;;0.52;;
44130;SDS011;29792;48.726;9.248;2024-03-23T07:46:28;0.47;;;0.20;;
44130;SDS011;29792;48.726;9.248;2024-03-23T07:48:53;0.30;;;0.10;;
44130;SDS011;29792;48.726;9.248;2024-03-23T07:51:22;0.25;;;0.10;;
44130;SDS011;29792;48.726;9.248;2024-03-23T07:53:48;0.22;;;0.10;;
44130;SDS011;29792;48.726;9.248;2024-03-23T07:56:13;0.38;;;0.00;;
44130;SDS011;29792;48.726;9.248;2024-03-23T07:58:44;0.20;;;0.10;;
44130;SDS011;29792;48.726;9.248;2024-03-23T08:01:10;0.28;;;0.28;;
44130;SDS011;29792;48.726;9.248;2024-03-23T08:03:38;0.10;;;0.10;;
44130;SDS011;29792;48.726;9.248;2024-03-23T08:08:36;0.40;;;0.17;;
44130;SDS011;29792;48.726;9.248;2024-03-23T08:11:01;0.52;;;0.30;;
44130;SDS011;29792;48.726;9.248;2024-03-23T08:13:27;0.60;;;0.10;;
44130;SDS011;29792;48.726;9.248;2024-03-23T08:15:56;1.25;;;0.10;;
44130;SDS011;29792;48.726;9.248;2024-03-23T08:18:22;0.30;;;0.10;;
44130;SDS011;29792;48.726;9.248;2024-03-23T08:20:47;0.10;;;0.03;;
44130;SDS011;29792;48.726;9.248;2024-03-23T08:23:19;0.10;;;0.10;;
44130;SDS011;29792;48.726;9.248;2024-03-23T08:25:45;0.20;;;0.17;;
44130;SDS011;29792;48.726;9.248;2024-03-23T08:28:10;0.38;;;0.20;;
44130;SDS011;29792;48.726;9.248;2024-03-23T08:30:35;1.80;;;0.30;;
44130;SDS011;29792;48.726;9.248;2024-03-23T08:33:00;0.32;;;0.20;;
44130;SDS011;29792;48.726;9.248;2024-03-23T08:35:26;0.35;;;0.20;;
44130;SDS011;29792;48.726;9.248;2024-03-23T08:37:51;0.50;;;0.30;;
44130;SDS011;29792;48.726;9.248;2024-03-23T08:40:16;0.40;;;0.40;;
44130;SDS011;29792;48.726;9.248;2024-03-23T08:42:41;0.50;;;0.45;;
44130;SDS011;29792;48.726;9.248;2024-03-23T08:45:07;0.40;;;0.30;;
44130;SDS011;29792;48.726;9.248;2024-03-23T08:47:34;0.50;;;0.50;;
44130;SDS011;29792;48.726;9.248;2024-03-23T08:49:59;0.50;;;0.47;;
44130;SDS011;29792;48.726;9.248;2024-03-23T08:52:25;1.17;;;0.60;;
44130;SDS011;29792;48.726;9.248;2024-03-23T08:54:53;1.20;;;0.98;;
44130;SDS011;29792;48.726;9.248;2024-03-23T08:57:18;1.45;;;0.63;;
44130;SDS011;29792;48.726;9.248;2024-03-23T08:59:43;1.10;;;0.52;;
44130;SDS011;29792;48.726;9.248;2024-03-23T09:02:09;0.98;;;0.50;;
44130;SDS011;29792;48.726;9.248;2024-03-23T09:04:34;1.48;;;0.70;;
44130;SDS011;29792;48.726;9.248;2024-03-23T09:07:00;1.10;;;0.47;;
44130;SDS011;29792;48.726;9.248;2024-03-23T09:09:25;1.63;;;0.98;;
44130;SDS011;29792;48.726;9.248;2024-03-23T09:11:50;3.10;;;0.70;;
44130;SDS011;29792;48.726;9.248;2024-03-23T09:14:16;1.13;;;1.05;;
44130;SDS011;29792;48.726;9.248;2024-03-23T09:16:41;1.58;;;1.05;;
44130;SDS011;29792;48.726;9.248;2024-03-23T09:19:06;4.88;;;1.55;;
44130;SDS011;29792;48.726;9.248;2024-03-23T09:21:32;5.32;;;1.45;;
44130;SDS011;29792;48.726;9.248;2024-03-23T09:23:57;3.10;;;1.40;;
44130;SDS011;29792;48.726;9.248;2024-03-23T09:26:23;2.50;;;1.20;;
44130;SDS011;29792;48.726;9.248;2024-03-23T09:28:48;1.85;;;1.48;;
44130;SDS011;29792;48.726;9.248;2024-03-23T09:31:14;3.60;;;1.67;;
44130;SDS011;29792;48.726;9.248;2024-03-23T09:33:40;3.75;;;1.98;;
44130;SDS011;29792;48.726;9.248;2024-03-23T09:36:06;3.78;;;1.45;;
44130;SDS011;29792;48.726;9.248;2024-03-23T09:38:32;5.97;;;2.33;;
44130;SDS011;29792;48.726;9.248;2024-03-23T09:40:58;4.40;;;2.65;;
44130;SDS011;29792;48.726;9.248;2024-03-23T09:43:24;5.55;;;2.72;;
44130;SDS011;29792;48.726;9.248;2024-03-23T09:45:49;5.88;;;2.20;;
44130;SDS011;29792;48.726;9.248;2024-03-23T09:48:15;4.63;;;2.15;;
44130;SDS011;29792;48.726;9.248;2024-03-23T09:50:41;4.38;;;2.83;;
44130;SDS011;29792;48.726;9.248;2024-03-23T09:53:09;4.40;;;3.05;;
44130;SDS011;29792;48.726;9.248;2024-03-23T09:55:36;5.28;;;2.30;;
44130;SDS011;29792;48.726;9.248;2024-03-23T09:58:03;5.40;;;2.35;;
44130;SDS011;29792;48.726;9.248;2024-03-23T10:00:33;5.30;;;3.25;;
44130;SDS011;29792;48.726;9.248;2024-03-23T10:02:59;5.68;;;2.75;;
44130;SDS011;29792;48.726;9.248;2024-03-23T10:05:28;8.13;;;3.10;;
44130;SDS011;29792;48.726;9.248;2024-03-23T10:07:57;4.93;;;2.42;;
44130;SDS011;29792;48.726;9.248;2024-03-23T10:10:22;5.00;;;2.28;;
44130;SDS011;29792;48.726;9.248;2024-03-23T10:12:50;7.50;;;2.20;;
44130;SDS011;29792;48.726;9.248;2024-03-23T10:15:22;7.68;;;2.70;;
44130;SDS011;29792;48.726;9.248;2024-03-23T10:17:49;7.75;;;3.20;;
44130;SDS011;29792;48.726;9.248;2024-03-23T10:20:21;3.60;;;2.60;;
44130;SDS011;29792;48.726;9.248;2024-03-23T10:22:48;4.63;;;2.83;;
44130;SDS011;29792;48.726;9.248;2024-03-23T10:25:24;4.97;;;2.42;;
44130;SDS011;29792;48.726;9.248;2024-03-23T10:27:57;5.80;;;2.53;;
44130;SDS011;29792;48.726;9.248;2024-03-23T10:32:54;7.32;;;2.47;;
44130;SDS011;29792;48.726;9.248;2024-03-23T10:35:31;4.63;;;2.10;;
44130;SDS011;29792;48.726;9.248;2024-03-23T10:37:57;5.95;;;3.72;;
44130;SDS011;29792;48.726;9.248;2024-03-23T10:40:22;5.60;;;2.17;;
44130;SDS011;29792;48.726;9.248;2024-03-23T10:42:49;6.40;;;3.33;;
44130;SDS011;29792;48.726;9.248;2024-03-23T10:45:17;6.15;;;2.58;;
44130;SDS011;29792;48.726;9.248;2024-03-23T10:47:42;4.70;;;1.77;;
44130;SDS011;29792;48.726;9.248;2024-03-23T10:50:07;6.32;;;2.97;;
44130;SDS011;29792;48.726;9.248;2024-03-23T10:52:33;4.53;;;2.88;;
44130;SDS011;29792;48.726;9.248;2024-03-23T10:54:59;5.60;;;2.15;;
44130;SDS011;29792;48.726;9.248;2024-03-23T10:57:34;5.70;;;2.42;;
44130;SDS011;29792;48.726;9.248;2024-03-23T11:00:05;6.10;;;2.83;;
44130;SDS011;29792;48.726;9.248;2024-03-23T11:02:31;7.25;;;3.30;;
44130;SDS011;29792;48.726;9.248;2024-03-23T11:04:56;8.68;;;3.25;;
44130;SDS011;29792;48.726;9.248;2024-03-23T11:07:29;7.25;;;2.38;;
44130;SDS011;29792;48.726;9.248;2024-03-23T11:09:56;3.53;;;1.27;;
44130;SDS011;29792;48.726;9.248;2024-03-23T11:17:19;2.72;;;1.83;;
44130;SDS011;29792;48.726;9.248;2024-03-23T11:19:55;2.95;;;1.67;;
44130;SDS011;29792;48.726;9.248;2024-03-23T11:27:51;2.53;;;1.75;;
44130;SDS011;29792;48.726;9.248;2024-03-23T11:30:27;3.88;;;1.27;;
44130;SDS011;29792;48.726;9.248;2024-03-23T11:32:54;3.50;;;1.65;;
44130;SDS011;29792;48.726;9.248;2024-03-23T11:38:05;1.60;;;1.50;;
44130;SDS011;29792;48.726;9.248;2024-03-23T11:40:41;3.22;;;1.33;;
44130;SDS011;29792;48.726;9.248;2024-03-23T11:43:08;1.90;;;1.50;;
44130;SDS011;29792;48.726;9.248;2024-03-23T11:45:39;3.50;;;1.70;;
44130;SDS011;29792;48.726;9.248;2024-03-23T11:48:08;2.42;;;1.50;;
44130;SDS011;29792;48.726;9.248;2024-03-23T11:50:39;2.30;;;1.20;;
44130;SDS011;29792;48.726;9.248;2024-03-23T11:53:26;1.83;;;0.75;;
44130;SDS011;29792;48.726;9.248;2024-03-23T11:55:56;5.03;;;1.33;;
44130;SDS011;29792;48.726;9.248;2024-03-23T11:58:23;2.15;;;1.10;;
44130;SDS011;29792;48.726;9.248;2024-03-23T12:00:50;3.35;;;1.05;;
44130;SDS011;29792;48.726;9.248;2024-03-23T12:03:20;3.15;;;1.08;;
44130;SDS011;29792;48.726;9.248;2024-03-23T12:05:51;2.30;;;1.20;;
44130;SDS011;29792;48.726;9.248;2024-03-23T12:08:36;3.40;;;1.80;;
44130;SDS011;29792;48.726;9.248;2024-03-23T12:11:06;2.00;;;0.60;;
44130;SDS011;29792;48.726;9.248;2024-03-23T12:13:36;2.35;;;1.20;;
44130;SDS011;29792;48.726;9.248;2024-03-23T12:16:12;2.85;;;1.17;;
44130;SDS011;29792;48.726;9.248;2024-03-23T12:18:39;2.78;;;0.85;;
44130;SDS011;29792;48.726;9.248;2024-03-23T12:21:08;4.35;;;0.93;;
44130;SDS011;29792;48.726;9.248;2024-03-23T12:23:34;7.10;;;2.58;;
44130;SDS011;29792;48.726;9.248;2024-03-23T12:25:59;2.67;;;1.13;;
44130;SDS011;29792;48.726;9.248;2024-03-23T12:28:25;5.45;;;1.50;;
44130;SDS011;29792;48.726;9.248;2024-03-23T12:30:51;6.35;;;1.55;;
44130;SDS011;29792;48.726;9.248;2024-03-23T12:33:20;4.97;;;1.52;;
44130;SDS011;29792;48.726;9.248;2024-03-23T12:35:46;3.80;;;0.98;;
44130;SDS011;29792;48.726;9.248;2024-03-23T12:38:11;3.28;;;1.30;;
44130;SDS011;29792;48.726;9.248;2024-03-23T12:40:36;6.20;;;2.47;;
44130;SDS011;29792;48.726;9.248;2024-03-23T12:43:02;5.88;;;1.95;;
44130;SDS011;29792;48.726;9.248;2024-03-23T12:45:27;6.82;;;1.98;;
44130;SDS011;29792;48.726;9.248;2024-03-23T12:47:52;3.13;;;1.17;;
44130;SDS011;29792;48.726;9.248;2024-03-23T12:50:18;5.07;;;1.33;;
44130;SDS011;29792;48.726;9.248;2024-03-23T12:52:44;4.05;;;1.27;;
44130;SDS011;29792;48.726;9.248;2024-03-23T12:55:09;7.20;;;1.35;;
44130;SDS011;29792;48.726;9.248;2024-03-23T12:57:34;5.60;;;1.60;;
44130;SDS011;29792;48.726;9.248;2024-03-23T13:00:00;5.40;;;1.23;;
44130;SDS011;29792;48.726;9.248;2024-03-23T13:02:25;4.50;;;2.83;;
44130;SDS011;29792;48.726;9.248;2024-03-23T13:04:51;3.17;;;1.73;;
44130;SDS011;29792;48.726;9.248;2024-03-23T13:07:17;6.65;;;1.30;;
44130;SDS011;29792;48.726;9.248;2024-03-23T13:09:43;7.40;;;2.92;;
44130;SDS011;29792;48.726;9.248;2024-03-23T13:12:08;6.88;;;2.10;;
44130;SDS011;29792;48.726;9.248;2024-03-23T13:14:34;5.72;;;1.92;;
44130;SDS011;29792;48.726;9.248;2024-03-23T13:17:00;7.53;;;1.83;;
44130;SDS011;29792;48.726;9.248;2024-03-23T13:19:25;5.65;;;2.03;;
44130;SDS011;29792;48.726;9.248;2024-03-23T13:21:53;4.97;;;2.38;;
44130;SDS011;29792;48.726;9.248;2024-03-23T13:24:22;13.48;;;8.18;;
44130;SDS011;29792;48.726;9.248;2024-03-23T13:26:49;5.28;;;1.85;;
44130;SDS011;29792;48.726;9.248;2024-03-23T13:29:15;6.57;;;2.22;;
44130;SDS011;29792;48.726;9.248;2024-03-23T13:31:40;5.45;;;1.75;;
44130;SDS011;29792;48.726;9.248;2024-03-23T13:34:05;2.92;;;1.00;;
44130;SDS011;29792;48.726;9.248;2024-03-23T13:36:30;3.05;;;0.65;;
44130;SDS011;29792;48.726;9.248;2024-03-23T13:38:56;4.53;;;0.93;;
44130;SDS011;29792;48.726;9.248;2024-03-23T13:41:21;3.03;;;1.15;;
44130;SDS011;29792;48.726;9.248;2024-03-23T13:43:46;2.20;;;0.80;;
44130;SDS011;29792;48.726;9.248;2024-03-23T13:46:12;1.83;;;0.25;;
44130;SDS011;29792;48.726;9.248;2024-03-23T13:48:37;2.92;;;0.30;;
44130;SDS011;29792;48.726;9.248;2024-03-23T13:51:03;1.88;;;0.82;;
44130;SDS011;29792;48.726;9.248;2024-03-23T13:53:29;1.98;;;0.40;;
44130;SDS011;29792;48.726;9.248;2024-03-23T13:55:55;0.55;;;0.45;;
44130;SDS011;29792;48.726;9.248;2024-03-23T13:58:20;3.88;;;0.30;;
44130;SDS011;29792;48.726;9.248;2024-03-23T14:00:46;1.27;;;0.30;;
44130;SDS011;29792;48.726;9.248;2024-03-23T14:03:12;0.85;;;0.40;;
44130;SDS011;29792;48.726;9.248;2024-03-23T14:05:38;1.38;;;0.47;;
44130;SDS011;29792;48.726;9.248;2024-03-23T14:08:07;1.33;;;0.70;;
44130;SDS011;29792;48.726;9.248;2024-03-23T14:10:33;2.95;;;1.27;;
44130;SDS011;29792;48.726;9.248;2024-03-23T14:12:58;3.75;;;0.90;;
44130;SDS011;29792;48.726;9.248;2024-03-23T14:15:28;2.30;;;0.80;;
44130;SDS011;29792;48.726;9.248;2024-03-23T14:17:53;2.90;;;0.70;;
44130;SDS011;29792;48.726;9.248;2024-03-23T14:20:20;3.50;;;0.70;;
44130;SDS011;29792;48.726;9.248;2024-03-23T14:22:46;2.55;;;0.68;;
44130;SDS011;29792;48.726;9.248;2024-03-23T14:25:11;2.40;;;0.63;;
44130;SDS011;29792;48.726;9.248;2024-03-23T14:27:36;1.17;;;0.80;;
44130;SDS011;29792;48.726;9.248;2024-03-23T14:30:02;1.52;;;0.47;;
44130;SDS011;29792;48.726;9.248;2024-03-23T14:32:29;0.77;;;0.50;;
44130;SDS011;29792;48.726;9.248;2024-03-23T14:34:58;1.02;;;0.35;;
44130;SDS011;29792;48.726;9.248;2024-03-23T14:37:24;7.85;;;4.53;;
44130;SDS011;29792;48.726;9.248;2024-03-23T14:39:49;3.35;;;1.00;;
44130;SDS011;29792;48.726;9.248;2024-03-23T14:42:15;1.27;;;0.90;;
44130;SDS011;29792;48.726;9.248;2024-03-23T14:44:40;32.33;;;20.90;;
44130;SDS011;29792;48.726;9.248;2024-03-23T14:47:07;0.52;;;0.50;;
44130;SDS011;29792;48.726;9.248;2024-03-23T14:49:32;0.77;;;0.70;;
44130;SDS011;29792;48.726;9.248;2024-03-23T14:51:58;1.83;;;0.77;;
44130;SDS011;29792;48.726;9.248;2024-03-23T14:54:23;1.88;;;0.40;;
44130;SDS011;29792;48.726;9.248;2024-03-23T14:56:49;2.75;;;0.50;;
44130;SDS011;29792;48.726;9.248;2024-03-23T14:59:14;1.65;;;0.63;;
44130;SDS011;29792;48.726;9.248;2024-03-23T15:01:39;1.50;;;0.60;;
44130;SDS011;29792;48.726;9.248;2024-03-23T15:04:05;2.72;;;0.50;;
44130;SDS011;29792;48.726;9.248;2024-03-23T15:06:30;2.35;;;0.60;;
44130;SDS011;29792;48.726;9.248;2024-03-23T15:08:56;2.85;;;1.30;;
44130;SDS011;29792;48.726;9.248;2024-03-23T15:11:21;2.20;;;0.40;;
44130;SDS011;29792;48.726;9.248;2024-03-23T15:13:46;1.02;;;0.50;;
44130;SDS011;29792;48.726;9.248;2024-03-23T15:16:16;2.05;;;0.47;;
44130;SDS011;29792;48.726;9.248;2024-03-23T15:18:45;0.68;;;0.50;;
44130;SDS011;29792;48.726;9.248;2024-03-23T15:21:10;2.80;;;0.70;;
44130;SDS011;29792;48.726;9.248;2024-03-23T15:23:36;2.70;;;1.33;;
44130;SDS011;29792;48.726;9.248;2024-03-23T15:26:02;1.92;;;1.20;;
44130;SDS011;29792;48.726;9.248;2024-03-23T15:28:28;1.02;;;0.50;;
44130;SDS011;29792;48.726;9.248;2024-03-23T15:31:04;1.77;;;0.98;;
44130;SDS011;29792;48.726;9.248;2024-03-23T15:33:30;2.00;;;0.50;;
44130;SDS011;29792;48.726;9.248;2024-03-23T15:35:58;2.22;;;0.73;;
44130;SDS011;29792;48.726;9.248;2024-03-23T15:38:24;1.55;;;0.35;;
44130;SDS011;29792;48.726;9.248;2024-03-23T15:40:52;0.77;;;0.30;;
44130;SDS011;29792;48.726;9.248;2024-03-23T15:43:18;1.38;;;0.30;;
44130;SDS011;29792;48.726;9.248;2024-03-23T15:45:43;3.60;;;0.82;;
44130;SDS011;29792;48.726;9.248;2024-03-23T15:48:09;5.28;;;0.80;;
44130;SDS011;29792;48.726;9.248;2024-03-23T15:50:35;2.15;;;0.52;;
44130;SDS011;29792;48.726;9.248;2024-03-23T15:53:00;2.17;;;0.70;;